Wabaningo, Michigan
Current Conditions -  °F | °C
As of 11:08 PM on Friday 24 Oct 2014 (Local Time) from KMKG Reporting Station
Haze Haze  
Wind Chill: 46°   Ceiling: 8500
Heat Index: 46°   Visibility: 1mi
Dew Point: 44°   Wind: 3mph
Humidity: 93%   Direction: 110°ESE
Pressure: 29.94"   Gusts: NA
Location:  43.37°N, 86.42°W
Report Text: KMKG 250308Z AUTO 11003KT 1SM R32/P6000FT BR BKN085 08/07 A2994 RMK AO2 T00780067
Loading
Personal Weather Stations






























Interactive Weather Map
Tropical Storm Tracking
New forecast layout! Learn more

10-Day Weather Forecast

Advertisements
Track Severe Weather on mobile